KIFA

Iowa Falls Municipal Airport

Iowa Falls, Iowa, USA
METAR KIFA 221515Z AUTO 00000KT 7SM OVC007 18/17 A3009 RMK AO2 T01750171
Observed Flight Rules
May-22 @ 15:15 UTC (10 minutes ago) Instrument Flight Rules
Visibility Clouds
7 miles
  • Overcast at 700' AGL
Temperatures Readings
Current 18°C / 64°F
Dewpoint 17°C / 63°F
Humidity 94%
Altimeter 30.09" Hg
Pressure 1019 hPa
Elevation 347
METAR KIFA 221515Z AUTO 00000KT 7SM OVC007 18/17 A3009 RMK AO2 T01750171
Observed Flight Rules
May-22 @ 15:15 UTC
(10 minutes ago)
IFR
Clouds
  • Overcast at 700' AGL
Temperature Dewpoint
18°C / 64°F 17°C / 63°F
Humidity Altimeter Pressure
94% 30.09" Hg 1019 hPa